createdAt,value
2019-04-10T00:01:23.670Z,10.01
2019-04-10T00:03:53.333Z,10.03
2019-04-10T00:06:23.644Z,10.01
2019-04-10T00:08:53.007Z,10.02
2019-04-10T00:11:22.799Z,9.99
2019-04-10T00:13:53.182Z,9.96
2019-04-10T00:16:22.495Z,9.97
2019-04-10T00:18:51.655Z,9.84
2019-04-10T00:21:21.018Z,9.81
2019-04-10T00:23:51.292Z,9.75
2019-04-10T00:26:21.562Z,9.74
2019-04-10T00:28:51.928Z,9.72
2019-04-10T00:31:22.784Z,9.67
2019-04-10T00:33:52.081Z,9.63
2019-04-10T00:36:21.461Z,9.63
2019-04-10T00:38:50.661Z,9.59
2019-04-10T00:41:19.820Z,9.49
2019-04-10T00:43:49.010Z,9.44
2019-04-10T00:46:18.161Z,9.40
2019-04-10T00:48:48.142Z,9.36
2019-04-10T00:51:17.387Z,9.32
2019-04-10T00:53:47.507Z,9.30
2019-04-10T00:56:16.705Z,9.21
2019-04-10T00:58:45.897Z,9.15
2019-04-10T01:01:15.988Z,9.14
2019-04-10T01:03:48.136Z,9.13
2019-04-10T01:06:16.744Z,9.03
2019-04-10T01:08:45.900Z,9.00
2019-04-10T01:11:15.254Z,8.96
2019-04-10T01:13:45.379Z,8.95
2019-04-10T01:16:16.259Z,8.92
2019-04-10T01:18:45.781Z,8.90
2019-04-10T01:21:14.998Z,8.88
2019-04-10T01:23:44.940Z,8.90
2019-04-10T01:26:14.947Z,8.88
2019-04-10T01:28:45.120Z,8.90
2019-04-10T01:31:15.094Z,8.89
2019-04-10T01:33:45.927Z,8.89
2019-04-10T01:36:15.411Z,8.89
2019-04-10T01:38:46.246Z,8.91
2019-04-10T01:41:15.526Z,8.90
2019-04-10T01:43:44.715Z,8.83
2019-04-10T01:46:13.907Z,8.78
2019-04-10T01:48:44.023Z,8.75
2019-04-10T01:51:13.331Z,8.70
2019-04-10T01:53:42.477Z,8.66
2019-04-10T01:56:23.967Z,8.62
2019-04-10T01:58:44.158Z,8.61
2019-04-10T02:01:26.221Z,8.57
2019-04-10T02:03:55.325Z,8.51
2019-04-10T02:06:25.317Z,8.45
2019-04-10T02:08:54.448Z,8.43
2019-04-10T02:11:24.024Z,8.37
2019-04-10T02:13:54.006Z,8.35
2019-04-10T02:16:24.617Z,8.33
2019-04-10T02:18:54.168Z,8.30
2019-04-10T02:21:23.492Z,8.26
2019-04-10T02:23:52.605Z,8.27
2019-04-10T02:26:21.873Z,8.23
2019-04-10T02:28:51.393Z,8.28
2019-04-10T02:31:21.557Z,8.24
2019-04-10T02:33:51.910Z,8.22
2019-04-10T02:36:21.550Z,8.21
2019-04-10T02:39:01.944Z,8.19
2019-04-10T02:41:21.803Z,8.18
2019-04-10T02:43:51.425Z,8.20
2019-04-10T02:46:21.973Z,8.18
2019-04-10T02:48:52.035Z,8.22
2019-04-10T02:51:22.889Z,8.18
2019-04-10T02:53:53.830Z,8.18
2019-04-10T02:56:25.175Z,8.16
2019-04-10T02:58:54.419Z,8.17
2019-04-10T03:01:25.084Z,8.19
2019-04-10T03:03:55.546Z,8.19
2019-04-10T03:06:24.873Z,8.22
2019-04-10T03:09:07.825Z,8.14
2019-04-10T03:11:26.480Z,8.13
2019-04-10T03:13:59.112Z,8.15
2019-04-10T03:16:29.110Z,8.09
2019-04-10T03:18:58.265Z,8.12
2019-04-10T03:21:27.446Z,8.15
2019-04-10T03:23:56.732Z,8.14
2019-04-10T03:26:25.915Z,8.17
2019-04-10T03:28:55.649Z,8.14
2019-04-10T03:31:27.161Z,8.17
2019-04-10T03:34:03.372Z,8.20
2019-04-10T03:36:40.095Z,8.18
2019-04-10T03:39:10.783Z,8.19
2019-04-10T03:41:40.304Z,8.18
2019-04-10T03:44:10.295Z,8.16
2019-04-10T03:46:40.209Z,8.19
2019-04-10T03:49:09.749Z,8.13
2019-04-10T03:51:41.065Z,8.13
2019-04-10T03:54:11.148Z,8.15
2019-04-10T03:56:40.913Z,8.13
2019-04-10T03:59:11.779Z,8.12
2019-04-10T04:01:41.017Z,8.15
2019-04-10T04:04:10.183Z,8.09
2019-04-10T04:06:39.827Z,8.10
2019-04-10T04:09:11.996Z,8.08
2019-04-10T04:11:40.283Z,8.10
2019-04-10T04:14:10.331Z,8.07
2019-04-10T04:16:39.596Z,8.05
2019-04-10T04:19:08.765Z,8.06
2019-04-10T04:21:37.928Z,8.07
2019-04-10T04:24:07.192Z,8.04
2019-04-10T04:26:37.200Z,8.03
2019-04-10T04:29:07.429Z,8.05
2019-04-10T04:31:36.842Z,8.02
2019-04-10T04:34:06.236Z,7.98
2019-04-10T04:36:35.708Z,7.95
2019-04-10T04:39:17.845Z,7.98
2019-04-10T04:41:37.978Z,7.95
2019-04-10T04:44:08.088Z,7.95
2019-04-10T04:46:38.621Z,7.93
2019-04-10T04:49:07.869Z,7.94
2019-04-10T04:51:38.934Z,7.94
2019-04-10T04:54:08.736Z,7.92
2019-04-10T04:56:38.310Z,7.91
2019-04-10T04:59:07.995Z,7.91
2019-04-10T05:01:38.296Z,7.91
2019-04-10T05:04:08.958Z,7.90
2019-04-10T05:06:38.305Z,7.92
2019-04-10T05:09:08.042Z,7.95
2019-04-10T05:11:38.428Z,7.92
2019-04-10T05:14:07.739Z,7.93
2019-04-10T05:16:37.055Z,7.96
2019-04-10T05:19:06.223Z,7.94
2019-04-10T05:21:35.438Z,8.00
2019-04-10T05:24:05.280Z,7.97
2019-04-10T05:26:34.480Z,7.98
2019-04-10T05:29:04.650Z,7.98
2019-04-10T05:31:34.279Z,8.00
2019-04-10T05:34:03.456Z,8.02
2019-04-10T05:36:33.535Z,8.03
2019-04-10T05:39:04.526Z,8.03
2019-04-10T05:41:33.731Z,8.02
2019-04-10T05:44:05.058Z,8.04
2019-04-10T05:46:34.635Z,8.05
2019-04-10T05:49:04.456Z,8.07
2019-04-10T05:51:33.904Z,8.06
2019-04-10T05:54:03.379Z,8.09
2019-04-10T05:56:32.525Z,8.11
2019-04-10T05:59:01.723Z,8.15
2019-04-10T06:01:35.839Z,8.14
2019-04-10T06:04:03.071Z,8.12
2019-04-10T06:06:32.609Z,8.15
2019-04-10T06:09:02.578Z,8.22
2019-04-10T06:11:33.045Z,8.21
2019-04-10T06:14:03.229Z,8.22
2019-04-10T06:16:32.475Z,8.23
2019-04-10T06:19:01.893Z,8.30
2019-04-10T06:21:31.500Z,8.32
2019-04-10T06:24:00.689Z,8.37
2019-04-10T06:26:30.046Z,8.41
2019-04-10T06:28:59.356Z,8.54
2019-04-10T06:31:28.586Z,8.61
2019-04-10T06:33:58.416Z,8.64
2019-04-10T06:36:27.687Z,8.65
2019-04-10T06:38:56.861Z,8.64
2019-04-10T06:41:26.383Z,8.72
2019-04-10T06:43:55.713Z,8.66
2019-04-10T06:46:24.870Z,8.58
2019-04-10T06:48:54.280Z,8.65
2019-04-10T06:51:23.478Z,8.60
2019-04-10T06:54:01.787Z,8.54
2019-04-10T06:56:23.544Z,8.65
2019-04-10T06:58:52.732Z,8.57
2019-04-10T07:01:25.525Z,8.57
2019-04-10T07:04:02.110Z,8.57
2019-04-10T07:06:39.343Z,8.57
2019-04-10T07:08:57.178Z,8.57
2019-04-10T07:11:30.438Z,8.57
2019-04-10T07:13:58.485Z,8.66
2019-04-10T07:16:31.502Z,8.73
2019-04-10T07:19:03.081Z,8.74
2019-04-10T07:21:32.824Z,8.79
2019-04-10T07:24:06.327Z,8.85
2019-04-10T07:26:39.377Z,8.85
2019-04-10T07:29:03.029Z,8.83
2019-04-10T07:31:35.031Z,8.86
2019-04-10T07:34:03.344Z,8.93
2019-04-10T07:36:32.955Z,8.96
2019-04-10T07:39:02.064Z,9.11
2019-04-10T07:41:31.482Z,9.15
2019-04-10T07:44:01.720Z,9.23
2019-04-10T07:46:31.312Z,9.21
2019-04-10T07:49:00.801Z,9.25
2019-04-10T07:51:29.977Z,9.33
2019-04-10T07:53:59.783Z,9.40
2019-04-10T07:56:29.134Z,9.57
2019-04-10T07:58:58.381Z,9.53
2019-04-10T08:01:27.560Z,9.52
2019-04-10T08:03:57.614Z,9.60
2019-04-10T08:06:27.777Z,9.85
2019-04-10T08:08:57.034Z,9.97
2019-04-10T08:11:26.243Z,10.10
2019-04-10T08:13:56.137Z,10.13
2019-04-10T08:16:25.651Z,10.22
2019-04-10T08:18:56.217Z,10.00
2019-04-10T08:21:25.531Z,10.09
2019-04-10T08:23:54.906Z,10.06
2019-04-10T08:26:24.735Z,10.23
2019-04-10T08:28:53.938Z,10.43
2019-04-10T08:31:23.852Z,10.14
2019-04-10T08:33:53.195Z,10.25
2019-04-10T08:36:23.448Z,10.36
2019-04-10T08:38:52.856Z,10.50
2019-04-10T08:41:21.940Z,10.36
2019-04-10T08:43:52.203Z,10.39
2019-04-10T08:46:21.863Z,10.27
2019-04-10T08:48:51.893Z,10.25
2019-04-10T08:51:21.436Z,10.32
2019-04-10T08:53:53.648Z,10.28
2019-04-10T08:56:23.076Z,10.30
2019-04-10T08:58:52.276Z,10.36
2019-04-10T09:01:21.443Z,10.41
2019-04-10T09:03:51.023Z,10.39
2019-04-10T09:06:20.172Z,10.21
2019-04-10T09:08:49.369Z,10.23
2019-04-10T09:11:24.652Z,10.28
2019-04-10T09:13:49.578Z,10.35
2019-04-10T09:16:18.746Z,10.33
2019-04-10T09:18:47.922Z,10.38
2019-04-10T09:21:17.547Z,10.35
2019-04-10T09:23:52.314Z,10.48
2019-04-10T09:26:17.655Z,10.36
2019-04-10T09:28:50.785Z,10.46
2019-04-10T09:31:20.162Z,10.80
2019-04-10T09:33:49.584Z,10.55
2019-04-10T09:36:20.170Z,10.58
2019-04-10T09:38:49.374Z,10.85
2019-04-10T09:41:19.478Z,10.88
2019-04-10T09:43:49.684Z,10.90
2019-04-10T09:46:20.168Z,10.82
2019-04-10T09:48:49.951Z,11.01
2019-04-10T09:51:19.715Z,11.05
2019-04-10T09:53:49.011Z,11.24
2019-04-10T09:56:20.081Z,11.07
2019-04-10T09:58:49.233Z,10.83
2019-04-10T10:01:19.971Z,10.76
2019-04-10T10:03:51.041Z,11.03
2019-04-10T10:06:27.428Z,11.36
2019-04-10T10:08:52.208Z,11.27
2019-04-10T10:11:22.213Z,11.31
2019-04-10T10:13:52.281Z,11.38
2019-04-10T10:16:21.476Z,11.57
2019-04-10T10:18:51.867Z,11.53
2019-04-10T10:21:21.163Z,11.77
2019-04-10T10:23:50.327Z,11.80
2019-04-10T10:26:19.781Z,11.77
2019-04-10T10:28:50.489Z,12.16
2019-04-10T10:31:20.179Z,12.21
2019-04-10T10:33:50.114Z,12.19
2019-04-10T10:36:19.962Z,12.27
2019-04-10T10:39:01.741Z,12.38
2019-04-10T10:41:20.483Z,12.41
2019-04-10T10:43:50.833Z,12.41
2019-04-10T10:46:20.106Z,12.52
2019-04-10T10:48:49.250Z,12.95
2019-04-10T10:51:18.456Z,12.35
2019-04-10T10:53:48.275Z,12.07
2019-04-10T10:56:18.236Z,12.07
2019-04-10T10:58:48.533Z,12.02
2019-04-10T11:01:18.020Z,12.07
2019-04-10T11:03:47.310Z,12.29
2019-04-10T11:06:17.736Z,12.37
2019-04-10T11:08:47.771Z,12.42
2019-04-10T11:11:17.167Z,12.14
2019-04-10T11:13:46.931Z,12.30
2019-04-10T11:16:16.997Z,12.77
2019-04-10T11:18:46.887Z,12.75
2019-04-10T11:21:16.848Z,12.58
2019-04-10T11:23:46.871Z,12.50
2019-04-10T11:26:20.543Z,12.58
2019-04-10T11:28:47.933Z,12.20
2019-04-10T11:31:17.520Z,12.47
2019-04-10T11:33:50.241Z,12.42
2019-04-10T11:36:19.880Z,12.37
2019-04-10T11:38:49.413Z,12.85
2019-04-10T11:41:19.356Z,12.76
2019-04-10T11:43:50.126Z,12.90
2019-04-10T11:46:20.143Z,13.15
2019-04-10T11:48:49.375Z,13.34
2019-04-10T11:51:18.635Z,13.11
2019-04-10T11:53:51.599Z,13.17
2019-04-10T11:56:19.334Z,13.19
2019-04-10T11:58:55.482Z,13.09
2019-04-10T12:01:22.554Z,13.15
2019-04-10T12:03:54.341Z,13.63
2019-04-10T12:06:25.081Z,13.53
2019-04-10T12:09:13.635Z,13.87
2019-04-10T12:11:24.692Z,13.18
2019-04-10T12:13:54.582Z,13.18
2019-04-10T12:16:25.086Z,13.51
2019-04-10T12:18:55.872Z,13.42
2019-04-10T12:21:26.230Z,13.31
2019-04-10T12:23:55.616Z,13.15
2019-04-10T12:26:25.519Z,13.28
2019-04-10T12:28:54.676Z,13.10
2019-04-10T12:31:24.034Z,13.16
2019-04-10T12:33:53.198Z,13.38
2019-04-10T12:36:24.655Z,13.17
2019-04-10T12:38:54.086Z,13.19
2019-04-10T12:41:23.535Z,13.12
2019-04-10T12:43:53.479Z,13.49
2019-04-10T12:46:22.713Z,13.60
2019-04-10T12:48:52.704Z,13.80
2019-04-10T12:51:22.028Z,13.35
2019-04-10T12:53:51.983Z,13.29
2019-04-10T12:56:22.167Z,13.52
2019-04-10T12:58:51.453Z,13.37
2019-04-10T13:01:20.745Z,13.60
2019-04-10T13:03:49.895Z,13.33
2019-04-10T13:06:20.078Z,13.46
2019-04-10T13:08:57.791Z,13.71
2019-04-10T13:11:20.657Z,13.91
2019-04-10T13:13:51.137Z,13.46
2019-04-10T13:16:20.898Z,13.31
2019-04-10T13:18:50.162Z,13.31
2019-04-10T13:21:20.158Z,13.30
2019-04-10T13:23:49.631Z,13.29
2019-04-10T13:26:19.001Z,13.10
2019-04-10T13:28:48.491Z,13.22
2019-04-10T13:31:19.247Z,13.35
2019-04-10T13:33:49.007Z,13.21
2019-04-10T13:36:18.167Z,13.65
2019-04-10T13:38:48.469Z,13.59
2019-04-10T13:41:18.606Z,13.28
2019-04-10T13:43:48.142Z,13.02
2019-04-10T13:46:18.464Z,12.85
2019-04-10T13:48:49.359Z,13.30
2019-04-10T13:51:19.309Z,13.08
2019-04-10T13:53:48.768Z,12.75
2019-04-10T13:56:19.107Z,12.80
2019-04-10T13:58:48.785Z,13.10
2019-04-10T14:01:25.285Z,13.33
2019-04-10T14:03:54.819Z,13.33
2019-04-10T14:06:23.997Z,13.11
2019-04-10T14:09:08.158Z,12.93
2019-04-10T14:11:24.895Z,13.35
2019-04-10T14:13:55.730Z,13.03
2019-04-10T14:16:26.676Z,13.41
2019-04-10T14:18:57.014Z,12.93
2019-04-10T14:21:29.065Z,12.87
2019-04-10T14:23:58.475Z,13.22
2019-04-10T14:26:43.925Z,13.26
2019-04-10T14:29:12.568Z,13.25
2019-04-10T14:31:46.912Z,12.84
2019-04-10T14:34:18.433Z,12.82
2019-04-10T14:36:48.467Z,12.91
2019-04-10T14:39:20.900Z,13.12
2019-04-10T14:41:49.787Z,13.17
2019-04-10T14:44:20.722Z,13.45
2019-04-10T14:46:49.899Z,13.48
2019-04-10T14:49:20.951Z,13.38
2019-04-10T14:51:50.107Z,13.04
2019-04-10T14:54:19.612Z,13.04
2019-04-10T14:56:48.836Z,13.21
2019-04-10T14:59:18.005Z,13.16
2019-04-10T15:01:48.541Z,12.96
2019-04-10T15:04:17.939Z,12.86
2019-04-10T15:06:47.985Z,12.81
2019-04-10T15:09:25.339Z,12.80
2019-04-10T15:11:51.517Z,12.84
2019-04-10T15:14:21.606Z,12.82
2019-04-10T15:16:55.456Z,13.01
2019-04-10T15:19:22.630Z,13.01
2019-04-10T15:21:53.662Z,13.03
2019-04-10T15:24:23.785Z,12.98
2019-04-10T15:26:54.067Z,12.93
2019-04-10T15:29:24.713Z,13.05
2019-04-10T15:31:54.170Z,12.88
2019-04-10T15:34:23.368Z,12.99
2019-04-10T15:36:52.886Z,13.02
2019-04-10T15:39:31.430Z,13.09
2019-04-10T15:41:52.978Z,13.10
2019-04-10T15:44:22.150Z,13.15
2019-04-10T15:46:51.388Z,13.10
2019-04-10T15:49:20.517Z,12.87
2019-04-10T15:51:49.833Z,12.88
2019-04-10T15:54:19.012Z,12.97
2019-04-10T15:56:48.170Z,13.06
2019-04-10T15:59:17.387Z,13.05
2019-04-10T16:01:47.636Z,12.88
2019-04-10T16:04:17.148Z,12.85
2019-04-10T16:06:47.397Z,12.83
2019-04-10T16:09:16.971Z,12.76
2019-04-10T16:12:06.099Z,12.87
2019-04-10T16:14:35.908Z,12.83
2019-04-10T16:17:19.425Z,12.88
2019-04-10T16:20:02.098Z,12.93
2019-04-10T16:22:37.475Z,13.03
2019-04-10T16:25:13.767Z,12.87
2019-04-10T16:27:45.274Z,12.80
2019-04-10T16:30:18.623Z,12.77
2019-04-10T16:32:50.091Z,12.68
2019-04-10T16:35:19.615Z,12.69
2019-04-10T16:37:49.513Z,12.72
2019-04-10T16:40:19.149Z,12.70
2019-04-10T16:42:48.778Z,12.71
2019-04-10T16:45:19.516Z,12.70
2019-04-10T16:47:48.789Z,12.71
2019-04-10T16:50:17.997Z,12.68
2019-04-10T16:52:47.439Z,12.73
2019-04-10T16:57:49.433Z,12.73
2019-04-10T17:00:20.582Z,12.71
2019-04-10T17:02:50.643Z,12.74
2019-04-10T17:05:20.645Z,12.75
2019-04-10T17:07:50.046Z,12.78
2019-04-10T17:10:24.358Z,12.67
2019-04-10T17:12:52.327Z,12.58
2019-04-10T17:15:21.805Z,12.59
2019-04-10T17:17:51.253Z,12.60
2019-04-10T17:20:20.729Z,12.53
2019-04-10T17:22:50.208Z,12.52
2019-04-10T17:25:20.119Z,12.57
2019-04-10T17:27:50.039Z,12.53
2019-04-10T17:30:20.258Z,12.50
2019-04-10T17:32:49.456Z,12.45
2019-04-10T17:35:19.297Z,12.44
2019-04-10T17:37:49.944Z,12.38
2019-04-10T17:40:30.132Z,12.35
2019-04-10T17:42:52.745Z,12.30
2019-04-10T17:45:22.982Z,12.29
2019-04-10T17:47:54.626Z,12.26
2019-04-10T17:50:24.653Z,12.24
2019-04-10T17:52:54.124Z,12.18
2019-04-10T17:55:23.346Z,12.19
2019-04-10T17:57:54.511Z,12.20
2019-04-10T18:00:31.275Z,12.20
2019-04-10T18:03:01.221Z,12.18
2019-04-10T18:05:30.879Z,12.21
2019-04-10T18:08:00.801Z,12.13
2019-04-10T18:10:41.112Z,12.13
2019-04-10T18:13:01.242Z,12.07
2019-04-10T18:15:32.436Z,12.07
2019-04-10T18:18:03.399Z,12.02
2019-04-10T18:20:33.777Z,12.03
2019-04-10T18:23:03.146Z,11.94
2019-04-10T18:25:32.462Z,11.92
2019-04-10T18:28:01.705Z,11.85
2019-04-10T18:30:32.997Z,11.87
2019-04-10T18:33:04.696Z,11.85
2019-04-10T18:35:35.273Z,11.83
2019-04-10T18:38:05.613Z,11.77
2019-04-10T18:40:35.288Z,11.72
2019-04-10T18:43:05.968Z,11.69
2019-04-10T18:45:35.619Z,11.67
2019-04-10T18:48:06.112Z,11.74
2019-04-10T18:50:36.193Z,11.67
2019-04-10T18:53:06.745Z,11.55
2019-04-10T18:55:36.462Z,11.50
2019-04-10T18:58:08.042Z,11.45
2019-04-10T19:00:56.807Z,11.28
2019-04-10T19:03:56.228Z,11.05
2019-04-10T19:06:29.579Z,10.99
2019-04-10T19:09:07.574Z,10.93
2019-04-10T19:11:33.517Z,10.90
2019-04-10T19:14:00.648Z,10.82
2019-04-10T19:16:30.428Z,10.80
2019-04-10T19:18:59.914Z,10.76
2019-04-10T19:21:29.430Z,10.66
2019-04-10T19:23:58.655Z,10.57
2019-04-10T19:26:27.879Z,10.49
2019-04-10T19:28:57.216Z,10.48
2019-04-10T19:31:27.750Z,10.53
2019-04-10T19:33:57.209Z,10.45
2019-04-10T19:36:26.400Z,10.49
2019-04-10T19:38:55.878Z,10.50
2019-04-10T19:41:30.905Z,10.38
2019-04-10T19:43:56.869Z,10.19
2019-04-10T19:46:29.266Z,10.04
2019-04-10T19:48:59.646Z,9.98
2019-04-10T19:51:30.073Z,10.05
2019-04-10T19:54:01.561Z,10.08
2019-04-10T19:56:30.815Z,10.00
2019-04-10T19:59:00.776Z,9.90
2019-04-10T20:01:31.411Z,9.84
2019-04-10T20:04:01.915Z,9.67
2019-04-10T20:06:32.457Z,9.75
2019-04-10T20:09:01.794Z,9.60
2019-04-10T20:11:37.516Z,9.60
2019-04-10T20:14:02.243Z,9.48
2019-04-10T20:16:31.506Z,9.43
2019-04-10T20:19:01.334Z,9.37
2019-04-10T20:21:30.765Z,9.24
2019-04-10T20:24:00.602Z,9.17
2019-04-10T20:26:31.399Z,9.14
2019-04-10T20:29:00.708Z,9.20
2019-04-10T20:31:33.163Z,9.16
2019-04-10T20:34:03.286Z,9.22
2019-04-10T20:36:33.237Z,9.10
2019-04-10T20:39:03.739Z,9.07
2019-04-10T20:41:45.024Z,9.03
2019-04-10T20:44:04.507Z,8.97
2019-04-10T20:46:33.988Z,9.01
2019-04-10T20:49:03.220Z,9.03
2019-04-10T20:51:32.575Z,8.92
2019-04-10T20:54:01.752Z,8.82
2019-04-10T20:56:31.047Z,8.69
2019-04-10T20:59:01.424Z,8.65
2019-04-10T21:01:30.989Z,8.59
2019-04-10T21:04:00.869Z,8.65
2019-04-10T21:06:30.285Z,8.76
2019-04-10T21:09:01.000Z,9.13
2019-04-10T21:11:31.330Z,9.19
2019-04-10T21:14:00.610Z,9.26
2019-04-10T21:16:29.777Z,9.21
2019-04-10T21:18:58.965Z,9.00
2019-04-10T21:21:28.564Z,8.85
2019-04-10T21:23:58.043Z,8.76
2019-04-10T21:26:28.291Z,8.64
2019-04-10T21:28:57.507Z,8.75
2019-04-10T21:32:05.206Z,8.72
2019-04-10T21:34:39.103Z,8.73
2019-04-10T21:37:08.313Z,8.74
2019-04-10T21:39:38.138Z,8.69
2019-04-10T21:42:14.838Z,8.76
2019-04-10T21:44:38.481Z,8.76
2019-04-10T21:47:08.822Z,8.98
2019-04-10T21:49:38.135Z,8.92
2019-04-10T21:52:07.749Z,8.86
2019-04-10T21:54:47.945Z,8.89
2019-04-10T21:57:09.594Z,8.84
2019-04-10T22:03:04.989Z,8.87
2019-04-10T22:05:37.328Z,8.71
2019-04-10T22:08:17.169Z,8.64
2019-04-10T22:10:48.210Z,8.60
2019-04-10T22:13:17.711Z,8.52
2019-04-10T22:15:49.096Z,8.48
2019-04-10T22:18:18.357Z,8.36
2019-04-10T22:20:47.958Z,8.28
2019-04-10T22:23:18.065Z,8.17
2019-04-10T22:25:47.965Z,8.13
2019-04-10T22:28:17.434Z,8.08
2019-04-10T22:30:46.624Z,7.96
2019-04-10T22:33:16.074Z,8.00
2019-04-10T22:35:46.272Z,7.94
2019-04-10T22:38:15.882Z,7.89
2019-04-10T22:40:46.250Z,7.85
2019-04-10T22:43:15.930Z,7.81
2019-04-10T22:45:45.138Z,7.59
2019-04-10T22:48:14.697Z,7.63
2019-04-10T22:50:44.987Z,7.56
2019-04-10T22:53:15.177Z,7.52
2019-04-10T22:55:44.597Z,7.51
2019-04-10T22:58:14.855Z,7.41
2019-04-10T23:00:44.225Z,7.34
2019-04-10T23:03:13.530Z,7.28
2019-04-10T23:05:43.030Z,7.29
2019-04-10T23:08:13.308Z,7.26
2019-04-10T23:10:43.465Z,7.19
2019-04-10T23:13:13.967Z,7.13
2019-04-10T23:15:43.995Z,7.17
2019-04-10T23:18:13.260Z,7.14
2019-04-10T23:20:43.765Z,7.07
2019-04-10T23:23:13.133Z,7.08
2019-04-10T23:25:42.678Z,6.98
2019-04-10T23:28:12.128Z,6.98
2019-04-10T23:30:41.419Z,6.96
2019-04-10T23:33:10.590Z,6.88
2019-04-10T23:35:39.772Z,6.79
2019-04-10T23:38:09.217Z,6.83
2019-04-10T23:40:38.348Z,6.75
2019-04-10T23:43:13.575Z,6.62
2019-04-10T23:45:39.761Z,6.50
2019-04-10T23:48:09.013Z,6.34
2019-04-10T23:50:38.609Z,6.40
2019-04-10T23:53:08.609Z,6.40
2019-04-10T23:55:37.916Z,6.39
2019-04-10T23:58:07.704Z,6.37
